Goodland, KS

6:41 AM MDT on October 02, 2014 (GMT -0600)
City of Gld Backyard Station | Change Station
CLOSE
Current Station
Personal Weather Station
Location: Goodland, KS
Elevation: 3711 ft
Nearby Weather Stations

Elev 3711 ft 39.34 °N, 101.71 °W | Updated 7 minutes ago

Mostly Cloudy
Mostly Cloudy
45.0 °F
Feels Like 43 °F
N
4.2
Wind Variable Wind from NNW

Today
High -- | Low -- °F
--% Chance of Precip.
Yesterday
High -- | Low -- °F
Precip. -- in
6:43 AM 6:27 PM
First Quarter, 58% visible
Pressure 29.97 in
Visibility 10.0 miles
Clouds Mostly Cloudy 3400 ft
Windchill 43 °F
Dew Point 44 °F
Humidity 98%
Rainfall 0.00 in
Snow Depth Not available.
UV 0 out of 12
Pollen .50 out of 12
Air Quality Not available.
Flu Activity Not available.
METAR KGLD 021153Z AUTO 33013KT 10SM BKN034 08/07 A3004 RMK AO2 SLP149 60000 70001 T00780072 10094 20078 53014

More Conditions Fewer Conditions

Pressure 29.97 in
Visibility 10.0 miles
Clouds Mostly Cloudy 3400 ft
Windchill 43 °F
Dew Point 44 °F
Humidity 98%
Rainfall 0.00 in
Snow Depth Not available.
UV 0 out of 12
Pollen .50 out of 12
Air Quality Not available.
Flu Activity Not available.
METAR KGLD 021153Z AUTO 33013KT 10SM BKN034 08/07 A3004 RMK AO2 SLP149 60000 70001 T00780072 10094 20078 53014

More Conditions Fewer Conditions

10-Day Weather Forecast

Almanac

Astronomy

Oct. 02, 2014 Rise Set
Actual Time 6:43 AM MDT 6:27 PM MDT
Civil Twilight 6:17 AM MDT 6:54 PM MDT
Nautical Twilight 5:46 AM MDT 7:25 PM MDT
Astronomical Twilight 5:14 AM MDT 7:56 PM MDT
Moon 2:33 PM MDT 12:04 AM MDT
Length of Visible Light 12h 37m
Length of Day
11h 43m
Tomorrow will be 2m 33s shorter.
First Quarter, 58% of the Moon is Illuminated
Today
First Quarter
Oct 8
Full
Oct 15
Last Quarter
Oct 23
New
Oct 30
First Quarter

Today's Extremes

State Highs State Lows

Community

WunderPhotos

Upload Photos

1,758,226 photos uploaded!

WunderBlogs® & News

Nearby

Snow Depth

Station Depth Elevation
No new snow has been reported.

Earthquake Activity

City Distance Mag. Time & Date
No recent earthquake activity has been reported nearby.
Minimum magnitude displayed is 2.5.

Coastal Water Temperatures

Place Temperature
No Stations Reporting

Nearby Weather Stations